Time;durP1;ratioP1;P1;durP2;ratioP2;P2;SDS_P1;SDS_P2;PMS_P1;PMS_P2;Temp;Humidity;BMP_temperature;BMP_pressure;BME280_temperature;BME280_humidity;BME280_pressure;Samples;Min_cycle;Max_cycle;Signal;HPM_P1;HPM_P2
2021/11/08 00:00:59;;;;;;;14.20;6.82;;;;;;;;;;5036274;28;20032;-65
2021/11/08 00:03:30;;;;;;;14.77;7.57;;;;;;;;;;5053423;28;20067;-65
2021/11/08 00:05:59;;;;;;;16.45;7.38;;;;;;;;;;5051750;28;20025;-65
2021/11/08 00:08:25;;;;;;;15.25;7.32;;;;;;;;;;5050044;28;20029;-65
2021/11/08 00:10:51;;;;;;;15.77;7.47;;;;;;;;;;5050072;28;20385;-65
2021/11/08 00:13:18;;;;;;;19.23;8.57;;;;;;;;;;5049395;28;20100;-65
2021/11/08 00:16:03;;;;;;;15.68;7.80;;;;;;;;;;5051386;28;20049;-65
2021/11/08 00:20:56;;;;;;;21.25;7.90;;;;;;;;;;5050634;28;20021;-65
2021/11/08 00:23:23;;;;;;;14.50;6.60;;;;;;;;;;5049375;28;20516;-65
2021/11/08 00:25:49;;;;;;;13.65;6.07;;;;;;;;;;5051006;28;20025;-65
2021/11/08 00:28:16;;;;;;;9.88;3.58;;;;;;;;;;5049655;28;20397;-67
2021/11/08 00:30:42;;;;;;;13.50;5.57;;;;;;;;;;5051098;28;20025;-65
2021/11/08 00:33:10;;;;;;;15.48;6.53;;;;;;;;;;5050853;28;20056;-65
2021/11/08 00:35:37;;;;;;;15.93;6.78;;;;;;;;;;5049539;28;20100;-65
2021/11/08 00:38:03;;;;;;;16.92;7.57;;;;;;;;;;5048815;28;20554;-65
2021/11/08 00:40:30;;;;;;;17.05;8.13;;;;;;;;;;5049489;28;20400;-65
2021/11/08 00:42:55;;;;;;;20.30;8.30;;;;;;;;;;5049955;28;20073;-65
2021/11/08 00:45:23;;;;;;;16.55;8.40;;;;;;;;;;5051342;28;20056;-65
2021/11/08 00:47:49;;;;;;;16.83;7.50;;;;;;;;;;5049242;28;20025;-65
2021/11/08 00:50:15;;;;;;;19.73;8.35;;;;;;;;;;5049631;28;20266;-65
2021/11/08 00:52:42;;;;;;;18.05;8.00;;;;;;;;;;5048067;28;20044;-65
2021/11/08 00:55:09;;;;;;;17.65;7.35;;;;;;;;;;5049248;28;20033;-65
2021/11/08 00:57:36;;;;;;;12.48;5.63;;;;;;;;;;5050326;28;20116;-65
2021/11/08 01:00:04;;;;;;;12.50;5.68;;;;;;;;;;5050921;28;20032;-65
2021/11/08 01:02:31;;;;;;;10.10;4.00;;;;;;;;;;5048668;28;20025;-65
2021/11/08 01:04:59;;;;;;;9.52;3.53;;;;;;;;;;5049048;28;20033;-65
2021/11/08 01:07:25;;;;;;;9.07;4.07;;;;;;;;;;5048917;28;20108;-65
2021/11/08 01:09:51;;;;;;;9.65;4.65;;;;;;;;;;5050151;28;20051;-65
2021/11/08 01:12:20;;;;;;;10.60;4.40;;;;;;;;;;5050973;28;20033;-65
2021/11/08 01:14:46;;;;;;;13.70;6.38;;;;;;;;;;5048136;28;20070;-65
2021/11/08 01:17:13;;;;;;;13.55;6.45;;;;;;;;;;5048530;28;20056;-65
2021/11/08 01:19:39;;;;;;;13.68;6.20;;;;;;;;;;5048732;28;20044;-65
2021/11/08 01:22:07;;;;;;;13.85;7.05;;;;;;;;;;5048093;28;20034;-65
2021/11/08 01:24:35;;;;;;;15.00;6.40;;;;;;;;;;5051293;28;20021;-65
2021/11/08 01:27:02;;;;;;;13.43;5.93;;;;;;;;;;5051109;28;20392;-65
2021/11/08 01:29:31;;;;;;;9.80;4.00;;;;;;;;;;5048444;28;20262;-65
2021/11/08 01:31:57;;;;;;;8.63;3.67;;;;;;;;;;5047636;28;20055;-65
2021/11/08 01:34:25;;;;;;;12.32;4.97;;;;;;;;;;5048229;28;20045;-64
2021/11/08 01:36:54;;;;;;;13.68;5.85;;;;;;;;;;5049778;28;20028;-64
2021/11/08 01:39:31;;;;;;;14.27;6.72;;;;;;;;;;5051325;28;20135;-65
2021/11/08 01:41:57;;;;;;;15.10;6.07;;;;;;;;;;5048996;28;20033;-65
2021/11/08 01:44:23;;;;;;;14.35;6.63;;;;;;;;;;5049112;28;20117;-65
2021/11/08 01:46:49;;;;;;;11.68;6.05;;;;;;;;;;5048193;28;20036;-65
2021/11/08 01:49:15;;;;;;;13.80;6.68;;;;;;;;;;5048490;28;20029;-65
2021/11/08 01:51:42;;;;;;;12.70;6.45;;;;;;;;;;5048975;28;20436;-65
2021/11/08 01:54:09;;;;;;;11.55;5.90;;;;;;;;;;5049473;28;20102;-65
2021/11/08 01:56:35;;;;;;;15.70;7.47;;;;;;;;;;5047227;28;20075;-65
2021/11/08 01:59:02;;;;;;;13.88;6.88;;;;;;;;;;5047196;28;20029;-65
2021/11/08 02:01:28;;;;;;;10.95;5.60;;;;;;;;;;5048102;28;20427;-65
2021/11/08 02:03:54;;;;;;;17.73;6.78;;;;;;;;;;5048928;28;20525;-65
2021/11/08 02:06:20;;;;;;;12.18;6.07;;;;;;;;;;5050604;28;20036;-65
2021/11/08 02:08:47;;;;;;;14.57;6.30;;;;;;;;;;5047712;28;20029;-65
2021/11/08 02:11:13;;;;;;;13.30;5.78;;;;;;;;;;5047835;28;20039;-65
2021/11/08 02:13:39;;;;;;;11.43;5.45;;;;;;;;;;5047237;28;20404;-65
2021/11/08 02:16:07;;;;;;;12.23;6.05;;;;;;;;;;5047769;28;20025;-64
2021/11/08 02:18:35;;;;;;;11.52;5.53;;;;;;;;;;5050773;28;20121;-65
2021/11/08 02:21:02;;;;;;;17.27;7.68;;;;;;;;;;5050428;28;20028;-65
2021/11/08 02:23:28;;;;;;;12.05;5.95;;;;;;;;;;5047833;28;20053;-65
2021/11/08 02:26:00;;;;;;;14.15;7.05;;;;;;;;;;5047372;28;20102;-65
2021/11/08 02:28:26;;;;;;;16.48;5.95;;;;;;;;;;5046838;28;20025;-65
2021/11/08 02:30:56;;;;;;;12.98;4.80;;;;;;;;;;5048669;28;20037;-65
2021/11/08 02:33:22;;;;;;;17.02;5.57;;;;;;;;;;5049075;28;20124;-65
2021/11/08 02:35:48;;;;;;;9.85;6.07;;;;;;;;;;5047712;28;20450;-65
2021/11/08 02:38:24;;;;;;;13.45;5.97;;;;;;;;;;5047811;28;20052;-65
2021/11/08 02:40:51;;;;;;;11.82;5.20;;;;;;;;;;5046376;28;20024;-65
2021/11/08 02:43:21;;;;;;;14.18;5.35;;;;;;;;;;5047735;28;20444;-65
2021/11/08 02:45:48;;;;;;;11.35;4.93;;;;;;;;;;5049184;28;20025;-65
2021/11/08 02:48:15;;;;;;;12.63;5.82;;;;;;;;;;5049762;28;20021;-65
2021/11/08 02:50:41;;;;;;;11.10;4.90;;;;;;;;;;5047202;28;20113;-65
2021/11/08 02:53:12;;;;;;;9.73;4.55;;;;;;;;;;5047453;28;20045;-65
2021/11/08 02:55:38;;;;;;;9.88;4.13;;;;;;;;;;5047477;28;20475;-65
2021/11/08 02:58:04;;;;;;;14.65;5.00;;;;;;;;;;5047401;28;20033;-65
2021/11/08 03:00:30;;;;;;;7.80;4.13;;;;;;;;;;5050924;28;20039;-65
2021/11/08 03:02:57;;;;;;;9.35;4.38;;;;;;;;;;5049527;28;20047;-65
2021/11/08 03:05:36;;;;;;;9.02;4.20;;;;;;;;;;5047494;28;20158;-65
2021/11/08 03:08:09;;;;;;;9.40;4.75;;;;;;;;;;5049076;28;20139;-67
2021/11/08 03:10:36;;;;;;;8.27;3.97;;;;;;;;;;5050765;28;20013;-67
2021/11/08 03:13:11;;;;;;;9.80;3.42;;;;;;;;;;5051009;28;20033;-67
2021/11/08 03:18:15;;;;;;;7.50;3.03;;;;;;;;;;5051968;28;20033;-67
2021/11/08 03:20:41;;;;;;;6.53;2.38;;;;;;;;;;5050783;28;20045;-67
2021/11/08 03:23:08;;;;;;;9.48;4.88;;;;;;;;;;5049679;28;20547;-67
2021/11/08 03:25:41;;;;;;;11.63;5.25;;;;;;;;;;5050246;28;20381;-67
2021/11/08 03:28:10;;;;;;;12.02;5.97;;;;;;;;;;5051106;28;20068;-67
2021/11/08 03:30:39;;;;;;;13.45;6.18;;;;;;;;;;5052999;28;20464;-67
2021/11/08 03:33:06;;;;;;;11.18;5.30;;;;;;;;;;5053345;28;20504;-67
2021/11/08 03:35:32;;;;;;;10.32;5.07;;;;;;;;;;5050707;28;20033;-67
2021/11/08 03:37:59;;;;;;;9.02;4.60;;;;;;;;;;5050419;28;20029;-67
2021/11/08 03:40:26;;;;;;;11.57;4.63;;;;;;;;;;5050376;28;20024;-67
2021/11/08 03:42:55;;;;;;;12.70;5.50;;;;;;;;;;5051146;28;20068;-67
2021/11/08 03:45:21;;;;;;;10.30;3.83;;;;;;;;;;5053570;28;20032;-67
2021/11/08 03:47:47;;;;;;;9.60;4.45;;;;;;;;;;5050599;28;20025;-67
2021/11/08 03:50:13;;;;;;;7.63;3.42;;;;;;;;;;5050286;28;20463;-67
2021/11/08 03:52:40;;;;;;;8.55;3.35;;;;;;;;;;5048467;28;20123;-67
2021/11/08 03:55:07;;;;;;;5.85;2.80;;;;;;;;;;5050127;28;20548;-67
2021/11/08 03:57:33;;;;;;;5.78;2.42;;;;;;;;;;5053158;28;20481;-67
2021/11/08 03:59:59;;;;;;;10.70;3.97;;;;;;;;;;5051253;28;20029;-67
2021/11/08 04:02:26;;;;;;;5.72;2.70;;;;;;;;;;5049653;28;20423;-67
2021/11/08 04:04:53;;;;;;;7.50;2.78;;;;;;;;;;5049785;28;20163;-67
2021/11/08 04:07:19;;;;;;;6.13;2.35;;;;;;;;;;5050015;28;20026;-67
2021/11/08 04:09:45;;;;;;;7.30;2.28;;;;;;;;;;5052042;28;20091;-67
2021/11/08 04:12:11;;;;;;;5.20;1.77;;;;;;;;;;5051499;28;20024;-67
2021/11/08 04:14:39;;;;;;;6.55;2.65;;;;;;;;;;5049641;28;20123;-67
2021/11/08 04:17:05;;;;;;;8.20;3.03;;;;;;;;;;5049448;28;20021;-66
2021/11/08 04:19:32;;;;;;;7.65;2.85;;;;;;;;;;5050818;28;20054;-66
2021/11/08 04:22:00;;;;;;;8.57;3.50;;;;;;;;;;5034917;28;20021;-66
2021/11/08 04:24:27;;;;;;;8.93;4.10;;;;;;;;;;5052110;28;20412;-65
2021/11/08 04:26:53;;;;;;;8.80;3.75;;;;;;;;;;5051431;28;20035;-65
2021/11/08 04:29:21;;;;;;;9.35;3.80;;;;;;;;;;5051354;28;20107;-65
2021/11/08 04:31:47;;;;;;;8.47;3.80;;;;;;;;;;5051088;28;20017;-65
2021/11/08 04:49:47;;;;;;;8.30;2.90;;;;;;;;;;5048710;28;20060;-66
2021/11/08 04:57:44;;;;;;;6.53;2.60;;;;;;;;;;5051473;28;20678;-65
2021/11/08 05:22:15;;;;;;;6.40;2.95;;;;;;;;;;5033723;28;20107;-65
2021/11/08 05:25:04;;;;;;;5.25;2.67;;;;;;;;;;5050164;28;20021;-65
2021/11/08 05:30:14;;;;;;;4.50;1.63;;;;;;;;;;5050572;28;20043;-65
2021/11/08 05:32:42;;;;;;;3.72;1.80;;;;;;;;;;5047977;28;20094;-65
2021/11/08 05:35:10;;;;;;;4.72;2.25;;;;;;;;;;5047538;28;20450;-65
2021/11/08 05:37:37;;;;;;;6.43;2.95;;;;;;;;;;5047878;28;20025;-65
2021/11/08 05:40:27;;;;;;;5.65;2.63;;;;;;;;;;5048143;28;20036;-65
2021/11/08 05:42:53;;;;;;;6.50;2.83;;;;;;;;;;5049207;28;20045;-65
2021/11/08 05:45:19;;;;;;;4.47;2.15;;;;;;;;;;5050972;28;20116;-65
2021/11/08 05:47:46;;;;;;;7.13;2.20;;;;;;;;;;5047654;28;20373;-65
2021/11/08 05:50:14;;;;;;;6.50;3.10;;;;;;;;;;5048984;28;20061;-65
2021/11/08 05:52:40;;;;;;;2.88;1.08;;;;;;;;;;5048055;28;20095;-65
2021/11/08 05:55:10;;;;;;;7.60;3.00;;;;;;;;;;5048251;28;20065;-65
2021/11/08 06:49:27;;;;;;;12.40;4.60;;;;;;;;;;5052477;28;20154;-66
2021/11/08 06:51:56;;;;;;;9.90;3.83;;;;;;;;;;5052415;28;20419;-66
2021/11/08 06:54:23;;;;;;;10.02;4.47;;;;;;;;;;5053742;28;20033;-66
2021/11/08 06:57:12;;;;;;;16.27;7.47;;;;;;;;;;5050275;28;20090;-67
2021/11/08 06:59:38;;;;;;;21.67;10.50;;;;;;;;;;5051790;28;20037;-66
2021/11/08 07:02:05;;;;;;;18.23;6.30;;;;;;;;;;5050142;28;20017;-66
2021/11/08 07:04:31;;;;;;;14.35;5.55;;;;;;;;;;5051094;28;20112;-66
2021/11/08 07:06:57;;;;;;;13.80;5.95;;;;;;;;;;5052366;28;20475;-66
2021/11/08 07:09:23;;;;;;;9.23;4.80;;;;;;;;;;5053860;28;20074;-66
2021/11/08 07:11:49;;;;;;;16.45;6.13;;;;;;;;;;5050562;28;20074;-66
2021/11/08 07:14:15;;;;;;;11.02;4.80;;;;;;;;;;5051514;28;20119;-66
2021/11/08 07:16:44;;;;;;;14.95;5.45;;;;;;;;;;5051591;28;20528;-65
2021/11/08 07:19:10;;;;;;;15.93;6.03;;;;;;;;;;5051908;28;20036;-66
2021/11/08 07:21:36;;;;;;;15.18;6.00;;;;;;;;;;5052643;28;20181;-66
2021/11/08 07:24:02;;;;;;;19.67;8.15;;;;;;;;;;5052618;28;20119;-65
2021/11/08 07:26:28;;;;;;;18.95;7.05;;;;;;;;;;5050165;28;20158;-65
2021/11/08 07:28:54;;;;;;;17.92;7.03;;;;;;;;;;5051885;28;20571;-66
2021/11/08 07:31:20;;;;;;;14.15;4.30;;;;;;;;;;5049601;28;20040;-66
2021/11/08 07:33:46;;;;;;;16.65;6.43;;;;;;;;;;5051261;28;20059;-65
2021/11/08 07:36:12;;;;;;;20.70;7.55;;;;;;;;;;5052182;28;20133;-66
2021/11/08 07:38:38;;;;;;;20.50;8.38;;;;;;;;;;5052132;28;20457;-66
2021/11/08 07:41:07;;;;;;;18.67;8.07;;;;;;;;;;5050111;28;20028;-65
2021/11/08 07:43:33;;;;;;;18.00;7.63;;;;;;;;;;5050792;28;20025;-66
2021/11/08 07:45:59;;;;;;;14.43;6.05;;;;;;;;;;5049651;28;20156;-66
2021/11/08 07:48:25;;;;;;;14.40;6.03;;;;;;;;;;5051074;28;20096;-65
2021/11/08 07:50:51;;;;;;;13.88;5.97;;;;;;;;;;5051322;28;20043;-66
2021/11/08 07:53:17;;;;;;;14.15;6.15;;;;;;;;;;5050062;28;20439;-65
2021/11/08 07:55:44;;;;;;;13.05;6.30;;;;;;;;;;5047021;28;20032;-65
2021/11/08 07:58:10;;;;;;;12.52;5.50;;;;;;;;;;5049927;28;20033;-65
2021/11/08 08:00:37;;;;;;;12.90;5.25;;;;;;;;;;5050601;28;20027;-66
2021/11/08 08:03:03;;;;;;;12.02;5.75;;;;;;;;;;5050497;28;20025;-65
2021/11/08 08:05:30;;;;;;;11.38;6.10;;;;;;;;;;5049053;28;20472;-65
2021/11/08 08:07:56;;;;;;;13.93;6.65;;;;;;;;;;5050537;28;20056;-65
2021/11/08 08:10:22;;;;;;;11.02;5.75;;;;;;;;;;5048231;28;20535;-65
2021/11/08 08:12:48;;;;;;;12.48;5.95;;;;;;;;;;5051185;28;20392;-66
2021/11/08 08:15:15;;;;;;;9.68;4.72;;;;;;;;;;5052455;28;20029;-66
2021/11/08 08:17:41;;;;;;;10.65;4.97;;;;;;;;;;5050344;28;20103;-66
2021/11/08 08:20:09;;;;;;;9.85;4.22;;;;;;;;;;5050864;28;20028;-66
2021/11/08 08:22:34;;;;;;;8.75;4.57;;;;;;;;;;5050815;28;20078;-66
2021/11/08 08:25:00;;;;;;;8.07;4.45;;;;;;;;;;5047745;28;20104;-66
2021/11/08 08:27:26;;;;;;;8.40;3.58;;;;;;;;;;5052499;28;20087;-66
2021/11/08 08:29:52;;;;;;;9.40;3.83;;;;;;;;;;5050972;28;20477;-66
2021/11/08 08:32:19;;;;;;;8.05;3.67;;;;;;;;;;5048280;28;20078;-66
2021/11/08 08:34:45;;;;;;;8.65;3.85;;;;;;;;;;5049044;28;20033;-66
2021/11/08 08:37:12;;;;;;;7.13;3.70;;;;;;;;;;5050490;28;20171;-66
2021/11/08 08:39:38;;;;;;;8.30;3.28;;;;;;;;;;5050326;28;20032;-66
2021/11/08 08:42:04;;;;;;;7.38;3.30;;;;;;;;;;5050517;28;20122;-66
2021/11/08 08:44:31;;;;;;;6.63;3.28;;;;;;;;;;5050847;28;20492;-66
2021/11/08 08:46:57;;;;;;;7.50;2.88;;;;;;;;;;5049889;28;20497;-66
2021/11/08 08:49:24;;;;;;;5.45;2.55;;;;;;;;;;5050356;28;20039;-66
2021/11/08 08:51:50;;;;;;;5.88;2.20;;;;;;;;;;5050251;28;20039;-66
2021/11/08 08:54:16;;;;;;;4.32;2.08;;;;;;;;;;5051567;28;20126;-66
2021/11/08 08:56:42;;;;;;;4.03;2.00;;;;;;;;;;5048799;28;20025;-66
2021/11/08 08:59:08;;;;;;;4.25;2.28;;;;;;;;;;5050486;28;20411;-66
2021/11/08 09:01:35;;;;;;;6.78;2.50;;;;;;;;;;5048313;28;20464;-65
2021/11/08 09:04:01;;;;;;;6.55;3.05;;;;;;;;;;5049010;28;20082;-65
2021/11/08 09:06:27;;;;;;;7.97;3.13;;;;;;;;;;5045905;28;20488;-65
2021/11/08 09:08:54;;;;;;;7.43;2.00;;;;;;;;;;5048926;28;20033;-65
2021/11/08 09:11:20;;;;;;;5.72;2.00;;;;;;;;;;5048709;28;20052;-65
2021/11/08 09:13:47;;;;;;;5.50;1.90;;;;;;;;;;5049626;28;20041;-66
2021/11/08 09:16:13;;;;;;;4.13;1.90;;;;;;;;;;5049947;28;20047;-64
2021/11/08 09:18:44;;;;;;;2.28;1.08;;;;;;;;;;5050322;28;20441;-64
2021/11/08 09:21:11;;;;;;;1.88;0.90;;;;;;;;;;5050664;28;20071;-64
2021/11/08 09:23:38;;;;;;;2.28;0.60;;;;;;;;;;5048780;28;20033;-63
2021/11/08 09:26:04;;;;;;;5.63;1.20;;;;;;;;;;5047598;28;20407;-63
2021/11/08 09:28:31;;;;;;;3.38;1.15;;;;;;;;;;5047166;28;20030;-63
2021/11/08 09:30:57;;;;;;;5.90;1.67;;;;;;;;;;5045959;28;20546;-64
2021/11/08 09:33:23;;;;;;;3.72;1.15;;;;;;;;;;5049354;28;20095;-63
2021/11/08 09:35:50;;;;;;;3.75;1.70;;;;;;;;;;5048179;28;20024;-64
2021/11/08 09:38:17;;;;;;;5.82;2.00;;;;;;;;;;5049727;28;20499;-63
2021/11/08 09:40:44;;;;;;;3.50;1.60;;;;;;;;;;5048034;28;20104;-63
2021/11/08 09:43:13;;;;;;;2.85;1.40;;;;;;;;;;5048770;28;20041;-63
2021/11/08 09:45:40;;;;;;;4.07;1.55;;;;;;;;;;5048073;28;20120;-63
2021/11/08 09:48:10;;;;;;;2.80;1.40;;;;;;;;;;5050622;28;20036;-63
2021/11/08 09:50:36;;;;;;;4.82;1.80;;;;;;;;;;5048597;28;20380;-63
2021/11/08 09:53:04;;;;;;;3.13;1.38;;;;;;;;;;5047454;28;20037;-63
2021/11/08 09:55:30;;;;;;;8.15;1.95;;;;;;;;;;5047818;28;20025;-63
2021/11/08 09:57:56;;;;;;;4.25;1.40;;;;;;;;;;5051046;28;20568;-63
2021/11/08 10:00:46;;;;;;;4.75;1.50;;;;;;;;;;5050312;28;20035;-63
2021/11/08 10:03:16;;;;;;;2.75;1.30;;;;;;;;;;5049078;28;20056;-63
2021/11/08 10:05:44;;;;;;;4.20;1.20;;;;;;;;;;5049836;28;20537;-63
2021/11/08 10:08:11;;;;;;;4.47;1.50;;;;;;;;;;5049232;28;20021;-63
2021/11/08 10:10:37;;;;;;;3.45;1.20;;;;;;;;;;5046279;28;20124;-64
2021/11/08 10:13:07;;;;;;;4.30;1.52;;;;;;;;;;5048997;28;20122;-63
2021/11/08 10:15:33;;;;;;;4.65;1.73;;;;;;;;;;5049339;28;20032;-63
2021/11/08 10:17:59;;;;;;;3.58;1.77;;;;;;;;;;5050650;28;20025;-63
2021/11/08 10:20:30;;;;;;;3.80;1.50;;;;;;;;;;5052413;28;20025;-63
2021/11/08 10:22:57;;;;;;;6.05;1.70;;;;;;;;;;5052092;28;20100;-63
2021/11/08 10:25:23;;;;;;;7.30;2.03;;;;;;;;;;5050872;28;20047;-63
2021/11/08 10:27:49;;;;;;;5.72;2.05;;;;;;;;;;5054015;28;20043;-63
2021/11/08 10:30:22;;;;;;;7.53;2.30;;;;;;;;;;5054074;28;20028;-64
2021/11/08 10:33:03;;;;;;;7.97;2.75;;;;;;;;;;5049054;28;20095;-63
2021/11/08 10:36:01;;;;;;;8.80;2.55;;;;;;;;;;5048625;28;20028;-64
2021/11/08 10:38:27;;;;;;;;;;;;;;;;;;5044750;28;20041;-61
2021/11/08 10:40:55;;;;;;;6.57;2.75;;;;;;;;;;5050772;28;19917;-63
2021/11/08 10:43:27;;;;;;;7.57;2.80;;;;;;;;;;5051886;28;20035;-63
2021/11/08 10:45:54;;;;;;;7.85;2.95;;;;;;;;;;5051732;28;20037;-63
2021/11/08 10:48:22;;;;;;;14.90;4.90;;;;;;;;;;5054419;28;20452;-64
2021/11/08 10:50:49;;;;;;;14.05;4.55;;;;;;;;;;5052091;28;20029;-64
2021/11/08 10:53:15;;;;;;;12.52;4.85;;;;;;;;;;5052009;28;20041;-64
2021/11/08 10:55:41;;;;;;;14.23;5.25;;;;;;;;;;5051606;28;20029;-63
2021/11/08 10:58:10;;;;;;;12.23;4.65;;;;;;;;;;5050156;28;20382;-64
2021/11/08 11:01:06;;;;;;;15.80;5.22;;;;;;;;;;5050630;28;20017;-63
2021/11/08 11:03:32;;;;;;;14.77;5.43;;;;;;;;;;5040189;28;20103;-64
2021/11/08 11:06:01;;;;;;;14.35;5.72;;;;;;;;;;5053151;28;20036;-63
2021/11/08 11:08:27;;;;;;;15.15;5.60;;;;;;;;;;5051252;28;20033;-63
2021/11/08 11:11:06;;;;;;;12.20;4.70;;;;;;;;;;5049312;28;20044;-64
2021/11/08 11:13:33;;;;;;;14.63;4.88;;;;;;;;;;5049624;28;20089;-64
2021/11/08 11:16:01;;;;;;;12.63;5.38;;;;;;;;;;5036892;28;20025;-64
2021/11/08 11:18:34;;;;;;;16.30;6.32;;;;;;;;;;5049939;28;20061;-64
2021/11/08 11:21:21;;;;;;;10.00;4.35;;;;;;;;;;5052894;28;20480;-63
2021/11/08 11:23:48;;;;;;;14.52;5.10;;;;;;;;;;5050294;28;20048;-64
2021/11/08 11:26:14;;;;;;;16.33;5.90;;;;;;;;;;5051634;28;20100;-64
2021/11/08 11:28:43;;;;;;;16.35;6.82;;;;;;;;;;5049859;28;20499;-64
2021/11/08 11:31:20;;;;;;;10.60;4.32;;;;;;;;;;5049909;28;20021;-64
2021/11/08 11:33:46;;;;;;;15.25;5.32;;;;;;;;;;5051884;28;20103;-64
2021/11/08 11:36:15;;;;;;;10.90;4.53;;;;;;;;;;5058211;28;20021;-64
2021/11/08 11:38:44;;;;;;;13.48;5.40;;;;;;;;;;5051590;28;20035;-63
2021/11/08 11:41:18;;;;;;;14.85;5.60;;;;;;;;;;5049668;28;20120;-63
2021/11/08 11:43:45;;;;;;;14.60;5.45;;;;;;;;;;5040411;28;20060;-63
2021/11/08 11:46:31;;;;;;;11.88;5.47;;;;;;;;;;5041465;28;20034;-71
2021/11/08 11:49:02;;;;;;;11.93;5.18;;;;;;;;;;5050064;28;20104;-68
2021/11/08 11:51:31;;;;;;;12.88;5.15;;;;;;;;;;5048693;28;20056;-64
2021/11/08 11:53:57;;;;;;;13.60;5.20;;;;;;;;;;5052560;28;20147;-64
2021/11/08 11:56:24;;;;;;;11.73;4.85;;;;;;;;;;5049361;28;20525;-64
2021/11/08 11:58:50;;;;;;;12.13;5.30;;;;;;;;;;5047165;28;20029;-64
2021/11/08 12:01:18;;;;;;;11.80;4.68;;;;;;;;;;5049283;28;20108;-67
2021/11/08 12:03:45;;;;;;;9.65;5.00;;;;;;;;;;5063862;28;20324;-65
2021/11/08 12:06:12;;;;;;;12.20;4.57;;;;;;;;;;5057158;28;20441;-66
2021/11/08 12:08:39;;;;;;;10.00;3.83;;;;;;;;;;5034454;28;20029;-66
2021/11/08 12:11:06;;;;;;;12.00;4.57;;;;;;;;;;5048135;28;20021;-66
2021/11/08 12:13:34;;;;;;;9.80;4.40;;;;;;;;;;5054473;28;20033;-65
2021/11/08 12:16:19;;;;;;;10.40;4.47;;;;;;;;;;5037895;28;20066;-63
2021/11/08 12:18:46;;;;;;;12.00;4.30;;;;;;;;;;5048324;28;20064;-63
2021/11/08 12:21:24;;;;;;;12.80;4.93;;;;;;;;;;5049960;28;20036;-64
2021/11/08 12:23:50;;;;;;;;;;;;;;;;;;5051399;28;20065;-64
2021/11/08 12:26:18;;;;;;;14.18;5.78;;;;;;;;;;5050633;28;19948;-64
2021/11/08 12:28:45;;;;;;;11.53;5.10;;;;;;;;;;5048108;28;20027;-64
2021/11/08 12:31:11;;;;;;;13.00;5.77;;;;;;;;;;5048689;28;20053;-63
2021/11/08 12:33:40;;;;;;;14.52;5.53;;;;;;;;;;5053348;28;20080;-63
2021/11/08 12:36:06;;;;;;;22.00;5.72;;;;;;;;;;5057957;28;20111;-65
2021/11/08 12:38:37;;;;;;;14.18;5.07;;;;;;;;;;5053270;28;20563;-64
2021/11/08 12:41:09;;;;;;;11.75;4.95;;;;;;;;;;5047821;28;20243;-63
2021/11/08 12:43:37;;;;;;;11.65;5.90;;;;;;;;;;5053690;28;20021;-63
2021/11/08 12:46:11;;;;;;;14.57;5.87;;;;;;;;;;5051139;28;20104;-63
2021/11/08 12:48:37;;;;;;;13.30;5.93;;;;;;;;;;5051186;28;20056;-63
2021/11/08 12:51:04;;;;;;;17.40;6.35;;;;;;;;;;5049411;28;20422;-63
2021/11/08 12:53:30;;;;;;;15.93;6.10;;;;;;;;;;5050768;28;20037;-63
2021/11/08 12:55:59;;;;;;;13.00;6.32;;;;;;;;;;5049659;28;20531;-64
2021/11/08 12:58:36;;;;;;;13.77;6.10;;;;;;;;;;5047987;28;20021;-63
2021/11/08 13:01:04;;;;;;;12.23;6.00;;;;;;;;;;5034866;28;20021;-64
2021/11/08 13:03:40;;;;;;;14.77;6.20;;;;;;;;;;5060814;28;20835;-64
2021/11/08 13:06:08;;;;;;;13.90;6.40;;;;;;;;;;5057263;28;20021;-63
2021/11/08 13:08:34;;;;;;;15.90;6.43;;;;;;;;;;5050991;28;20017;-64
2021/11/08 13:11:13;;;;;;;15.82;6.68;;;;;;;;;;5047345;28;20033;-64
2021/11/08 13:13:41;;;;;;;14.55;6.35;;;;;;;;;;5052847;28;20029;-64
2021/11/08 13:16:12;;;;;;;11.07;5.50;;;;;;;;;;5049483;28;20026;-64
2021/11/08 13:18:43;;;;;;;14.73;6.50;;;;;;;;;;5055608;28;20412;-64
2021/11/08 13:21:10;;;;;;;15.23;6.68;;;;;;;;;;5048314;28;20485;-64
2021/11/08 13:23:38;;;;;;;16.25;6.75;;;;;;;;;;5050209;28;20384;-64
2021/11/08 13:26:05;;;;;;;13.90;6.65;;;;;;;;;;5049140;28;20396;-64
2021/11/08 13:28:32;;;;;;;10.93;5.53;;;;;;;;;;5048130;28;20021;-64
2021/11/08 13:31:04;;;;;;;12.70;6.10;;;;;;;;;;5032416;28;20044;-64
2021/11/08 13:33:31;;;;;;;13.40;6.18;;;;;;;;;;5047298;28;20544;-64
2021/11/08 13:35:58;;;;;;;12.32;5.68;;;;;;;;;;5055014;28;20025;-64
2021/11/08 13:38:27;;;;;;;15.68;5.22;;;;;;;;;;5051686;28;20060;-64
2021/11/08 13:40:57;;;;;;;12.52;5.47;;;;;;;;;;5047981;28;20109;-64
2021/11/08 13:43:27;;;;;;;11.85;5.38;;;;;;;;;;5047592;28;20029;-64
2021/11/08 13:45:53;;;;;;;16.48;5.55;;;;;;;;;;5050472;28;20034;-64
2021/11/08 13:48:23;;;;;;;18.15;7.28;;;;;;;;;;5049679;28;20060;-64
2021/11/08 13:50:49;;;;;;;12.27;6.57;;;;;;;;;;5047950;28;20448;-64
2021/11/08 13:53:16;;;;;;;14.45;8.05;;;;;;;;;;5046829;28;20037;-64
2021/11/08 13:55:43;;;;;;;11.20;6.17;;;;;;;;;;5049002;28;20082;-64
2021/11/08 13:58:09;;;;;;;12.80;6.68;;;;;;;;;;5048009;28;20017;-64
2021/11/08 14:00:35;;;;;;;16.83;5.53;;;;;;;;;;5050391;28;20090;-63
2021/11/08 14:03:11;;;;;;;15.32;6.20;;;;;;;;;;5048218;28;20481;-63
2021/11/08 14:05:45;;;;;;;11.75;5.95;;;;;;;;;;5051270;28;20032;-63
2021/11/08 14:08:11;;;;;;;13.88;5.68;;;;;;;;;;5053592;28;20374;-64
2021/11/08 14:10:37;;;;;;;15.57;6.40;;;;;;;;;;5047393;28;20376;-64
2021/11/08 14:13:13;;;;;;;15.10;6.25;;;;;;;;;;5047503;28;20108;-64
2021/11/08 14:15:40;;;;;;;17.55;7.35;;;;;;;;;;5050712;28;20079;-64
2021/11/08 14:18:06;;;;;;;12.50;5.88;;;;;;;;;;5048089;28;20112;-64
2021/11/08 14:20:31;;;;;;;12.75;6.20;;;;;;;;;;5047251;28;20473;-64
2021/11/08 14:22:57;;;;;;;11.93;6.13;;;;;;;;;;5047623;28;20035;-64
2021/11/08 14:25:24;;;;;;;20.17;7.10;;;;;;;;;;5047623;28;20067;-64
2021/11/08 14:27:49;;;;;;;13.10;5.93;;;;;;;;;;5050306;28;20091;-64
2021/11/08 14:30:15;;;;;;;15.32;6.60;;;;;;;;;;5048073;28;20036;-64
2021/11/08 14:32:42;;;;;;;20.98;8.73;;;;;;;;;;5046422;28;20031;-63
2021/11/08 14:35:12;;;;;;;24.88;9.35;;;;;;;;;;5047505;28;20051;-64
2021/11/08 14:37:44;;;;;;;17.15;7.95;;;;;;;;;;5056522;28;20101;-64
2021/11/08 14:40:16;;;;;;;13.10;6.32;;;;;;;;;;5047033;28;20151;-63
2021/11/08 14:42:42;;;;;;;15.38;7.38;;;;;;;;;;5048569;28;20103;-64
2021/11/08 14:45:16;;;;;;;19.92;9.05;;;;;;;;;;5048517;28;20029;-64
2021/11/08 14:47:42;;;;;;;16.15;9.68;;;;;;;;;;5047993;28;20179;-64
2021/11/08 14:50:11;;;;;;;23.15;10.30;;;;;;;;;;5046521;28;20516;-64
2021/11/08 14:52:40;;;;;;;16.60;8.95;;;;;;;;;;5047003;28;20170;-64
2021/11/08 14:55:12;;;;;;;18.65;7.40;;;;;;;;;;5047134;28;20124;-64
2021/11/08 14:57:38;;;;;;;16.77;8.98;;;;;;;;;;5050920;28;20017;-63
2021/11/08 15:00:09;;;;;;;13.05;7.00;;;;;;;;;;5046959;28;20025;-64
2021/11/08 15:02:35;;;;;;;19.30;8.80;;;;;;;;;;5048502;28;20460;-64
2021/11/08 15:05:01;;;;;;;17.65;7.18;;;;;;;;;;5052161;28;20110;-64
2021/11/08 15:07:31;;;;;;;17.90;9.20;;;;;;;;;;5050018;28;20037;-64
2021/11/08 15:09:59;;;;;;;14.63;7.88;;;;;;;;;;5050538;28;20036;-64
2021/11/08 15:12:26;;;;;;;16.17;7.13;;;;;;;;;;5053491;28;20020;-64
2021/11/08 15:14:55;;;;;;;17.02;7.20;;;;;;;;;;5051968;28;20036;-64
2021/11/08 15:17:28;;;;;;;50.80;23.48;;;;;;;;;;5050937;28;20440;-64
2021/11/08 15:20:02;;;;;;;43.55;20.42;;;;;;;;;;5050043;28;20040;-64
2021/11/08 15:22:31;;;;;;;21.25;9.90;;;;;;;;;;5049981;28;20021;-64
2021/11/08 15:24:57;;;;;;;18.20;8.65;;;;;;;;;;5050558;28;20720;-64
2021/11/08 15:27:29;;;;;;;24.60;12.27;;;;;;;;;;5055098;28;20021;-64
2021/11/08 15:30:04;;;;;;;23.65;11.88;;;;;;;;;;5049779;28;20150;-63
2021/11/08 15:32:29;;;;;;;20.83;10.50;;;;;;;;;;5049910;28;20041;-63
2021/11/08 15:34:55;;;;;;;14.60;7.45;;;;;;;;;;5049732;28;20037;-64
2021/11/08 15:37:22;;;;;;;16.50;7.40;;;;;;;;;;5063246;28;20086;-63
2021/11/08 15:39:48;;;;;;;14.05;6.63;;;;;;;;;;5046729;28;20464;-64
2021/11/08 15:42:15;;;;;;;14.00;7.45;;;;;;;;;;5048166;28;20052;-64
2021/11/08 15:44:40;;;;;;;19.50;9.75;;;;;;;;;;5050701;28;20510;-64
2021/11/08 15:47:08;;;;;;;21.40;10.60;;;;;;;;;;5047119;28;20379;-64
2021/11/08 15:49:34;;;;;;;19.13;9.90;;;;;;;;;;5048158;28;20697;-64
2021/11/08 15:52:00;;;;;;;21.55;12.60;;;;;;;;;;5037419;28;20208;-64
2021/11/08 15:54:26;;;;;;;39.83;22.40;;;;;;;;;;5053914;28;20047;-64
2021/11/08 15:56:54;;;;;;;42.50;23.63;;;;;;;;;;5049797;28;20412;-64
2021/11/08 15:59:21;;;;;;;21.20;12.60;;;;;;;;;;5048078;28;20043;-64
2021/11/08 16:01:47;;;;;;;20.23;11.45;;;;;;;;;;5047956;28;20021;-64
2021/11/08 16:04:14;;;;;;;38.67;23.63;;;;;;;;;;5051444;28;20112;-64
2021/11/08 16:06:41;;;;;;;43.47;21.02;;;;;;;;;;5047944;28;20028;-64
2021/11/08 16:09:07;;;;;;;32.42;16.92;;;;;;;;;;5049626;28;20033;-64
2021/11/08 16:11:34;;;;;;;19.23;10.82;;;;;;;;;;5047827;28;20029;-63
2021/11/08 16:14:00;;;;;;;29.88;16.83;;;;;;;;;;5050522;28;20407;-65
2021/11/08 16:16:27;;;;;;;35.10;18.85;;;;;;;;;;5059601;28;20435;-65
2021/11/08 16:18:53;;;;;;;22.67;11.60;;;;;;;;;;5037480;28;20474;-66
2021/11/08 16:21:19;;;;;;;23.17;12.93;;;;;;;;;;5050376;28;20029;-65